sensor_id;sensor_type;location;lat;lon;timestamp;P1;durP1;ratioP1;P2;durP2;ratioP2
44165;SDS011;30476;53.468;9.826;2023-05-10T00:00:52;2.67;;;2.57;;
44165;SDS011;30476;53.468;9.826;2023-05-10T00:03:18;3.20;;;2.60;;
44165;SDS011;30476;53.468;9.826;2023-05-10T00:05:44;2.67;;;2.57;;
44165;SDS011;30476;53.468;9.826;2023-05-10T00:08:09;2.90;;;2.70;;
44165;SDS011;30476;53.468;9.826;2023-05-10T00:10:35;4.53;;;2.73;;
44165;SDS011;30476;53.468;9.826;2023-05-10T00:13:02;4.13;;;2.80;;
44165;SDS011;30476;53.468;9.826;2023-05-10T00:15:28;2.47;;;2.37;;
44165;SDS011;30476;53.468;9.826;2023-05-10T00:17:56;2.87;;;2.77;;
44165;SDS011;30476;53.468;9.826;2023-05-10T00:20:22;6.33;;;2.93;;
44165;SDS011;30476;53.468;9.826;2023-05-10T00:22:48;2.50;;;2.40;;
44165;SDS011;30476;53.468;9.826;2023-05-10T00:25:13;3.27;;;2.87;;
44165;SDS011;30476;53.468;9.826;2023-05-10T00:27:39;3.00;;;2.80;;
44165;SDS011;30476;53.468;9.826;2023-05-10T00:30:05;2.80;;;2.60;;
44165;SDS011;30476;53.468;9.826;2023-05-10T00:32:32;2.80;;;2.60;;
44165;SDS011;30476;53.468;9.826;2023-05-10T00:34:57;2.50;;;2.40;;
44165;SDS011;30476;53.468;9.826;2023-05-10T00:37:23;4.60;;;2.60;;
44165;SDS011;30476;53.468;9.826;2023-05-10T00:39:49;3.30;;;3.07;;
44165;SDS011;30476;53.468;9.826;2023-05-10T00:42:15;2.93;;;2.83;;
44165;SDS011;30476;53.468;9.826;2023-05-10T00:44:41;2.70;;;2.50;;
44165;SDS011;30476;53.468;9.826;2023-05-10T00:47:06;3.63;;;3.33;;
44165;SDS011;30476;53.468;9.826;2023-05-10T00:49:33;3.60;;;3.30;;
44165;SDS011;30476;53.468;9.826;2023-05-10T00:52:00;3.57;;;3.20;;
44165;SDS011;30476;53.468;9.826;2023-05-10T00:54:27;4.20;;;3.43;;
44165;SDS011;30476;53.468;9.826;2023-05-10T00:56:53;3.43;;;3.20;;
44165;SDS011;30476;53.468;9.826;2023-05-10T00:59:18;3.60;;;2.90;;
44165;SDS011;30476;53.468;9.826;2023-05-10T01:01:45;3.47;;;3.27;;
44165;SDS011;30476;53.468;9.826;2023-05-10T01:04:11;4.47;;;3.97;;
44165;SDS011;30476;53.468;9.826;2023-05-10T01:06:38;4.40;;;3.63;;
44165;SDS011;30476;53.468;9.826;2023-05-10T01:09:07;3.23;;;3.03;;
44165;SDS011;30476;53.468;9.826;2023-05-10T01:11:34;2.60;;;2.40;;
44165;SDS011;30476;53.468;9.826;2023-05-10T01:14:01;4.23;;;3.83;;
44165;SDS011;30476;53.468;9.826;2023-05-10T01:16:28;3.27;;;2.97;;
44165;SDS011;30476;53.468;9.826;2023-05-10T01:18:57;2.87;;;2.60;;
44165;SDS011;30476;53.468;9.826;2023-05-10T01:29:47;5.60;;;3.73;;
44165;SDS011;30476;53.468;9.826;2023-05-10T01:32:30;3.67;;;3.47;;
44165;SDS011;30476;53.468;9.826;2023-05-10T01:35:21;3.23;;;3.03;;
44165;SDS011;30476;53.468;9.826;2023-05-10T01:38:06;3.43;;;3.20;;
44165;SDS011;30476;53.468;9.826;2023-05-10T01:40:37;3.50;;;3.40;;
44165;SDS011;30476;53.468;9.826;2023-05-10T01:43:14;3.93;;;3.57;;
44165;SDS011;30476;53.468;9.826;2023-05-10T01:46:02;5.33;;;3.67;;
44165;SDS011;30476;53.468;9.826;2023-05-10T01:48:46;3.67;;;3.37;;
44165;SDS011;30476;53.468;9.826;2023-05-10T01:51:15;3.37;;;3.10;;
44165;SDS011;30476;53.468;9.826;2023-05-10T01:53:45;3.40;;;3.17;;
44165;SDS011;30476;53.468;9.826;2023-05-10T01:56:13;3.93;;;3.63;;
44165;SDS011;30476;53.468;9.826;2023-05-10T01:58:40;3.73;;;3.30;;
44165;SDS011;30476;53.468;9.826;2023-05-10T02:01:10;4.10;;;3.70;;
44165;SDS011;30476;53.468;9.826;2023-05-10T02:03:37;3.83;;;3.53;;
44165;SDS011;30476;53.468;9.826;2023-05-10T02:06:05;4.17;;;3.70;;
44165;SDS011;30476;53.468;9.826;2023-05-10T02:08:32;4.23;;;3.90;;
44165;SDS011;30476;53.468;9.826;2023-05-10T02:11:01;4.17;;;3.83;;
44165;SDS011;30476;53.468;9.826;2023-05-10T02:13:29;3.57;;;3.37;;
44165;SDS011;30476;53.468;9.826;2023-05-10T02:15:56;4.10;;;3.70;;
44165;SDS011;30476;53.468;9.826;2023-05-10T02:18:23;3.63;;;3.43;;
44165;SDS011;30476;53.468;9.826;2023-05-10T02:20:50;3.97;;;3.67;;
44165;SDS011;30476;53.468;9.826;2023-05-10T02:23:19;4.03;;;3.73;;
44165;SDS011;30476;53.468;9.826;2023-05-10T02:25:45;3.33;;;3.13;;
44165;SDS011;30476;53.468;9.826;2023-05-10T02:28:13;5.33;;;4.50;;
44165;SDS011;30476;53.468;9.826;2023-05-10T02:30:40;5.43;;;3.87;;
44165;SDS011;30476;53.468;9.826;2023-05-10T02:33:06;3.80;;;3.60;;
44165;SDS011;30476;53.468;9.826;2023-05-10T02:35:33;6.20;;;3.80;;
44165;SDS011;30476;53.468;9.826;2023-05-10T02:38:00;3.90;;;3.60;;
44165;SDS011;30476;53.468;9.826;2023-05-10T02:40:26;4.37;;;3.97;;
44165;SDS011;30476;53.468;9.826;2023-05-10T02:42:54;3.90;;;3.60;;
44165;SDS011;30476;53.468;9.826;2023-05-10T02:45:23;4.33;;;4.07;;
44165;SDS011;30476;53.468;9.826;2023-05-10T02:47:53;3.47;;;3.27;;
44165;SDS011;30476;53.468;9.826;2023-05-10T02:50:19;4.07;;;3.77;;
44165;SDS011;30476;53.468;9.826;2023-05-10T02:52:51;3.37;;;3.17;;
44165;SDS011;30476;53.468;9.826;2023-05-10T02:55:19;3.73;;;3.43;;
44165;SDS011;30476;53.468;9.826;2023-05-10T02:57:55;4.63;;;4.23;;
44165;SDS011;30476;53.468;9.826;2023-05-10T03:00:25;7.70;;;3.93;;
44165;SDS011;30476;53.468;9.826;2023-05-10T03:02:51;3.73;;;3.43;;
44165;SDS011;30476;53.468;9.826;2023-05-10T03:05:17;4.57;;;4.27;;
44165;SDS011;30476;53.468;9.826;2023-05-10T03:07:44;7.40;;;3.70;;
44165;SDS011;30476;53.468;9.826;2023-05-10T03:10:10;3.80;;;3.60;;
44165;SDS011;30476;53.468;9.826;2023-05-10T03:12:52;4.17;;;3.87;;
44165;SDS011;30476;53.468;9.826;2023-05-10T03:15:44;5.07;;;4.77;;
44165;SDS011;30476;53.468;9.826;2023-05-10T03:18:38;6.20;;;4.00;;
44165;SDS011;30476;53.468;9.826;2023-05-10T03:21:06;3.77;;;3.57;;
44165;SDS011;30476;53.468;9.826;2023-05-10T03:23:44;4.30;;;3.90;;
44165;SDS011;30476;53.468;9.826;2023-05-10T03:26:17;3.90;;;3.70;;
44165;SDS011;30476;53.468;9.826;2023-05-10T03:28:45;4.20;;;3.90;;
44165;SDS011;30476;53.468;9.826;2023-05-10T03:31:13;4.37;;;4.07;;
44165;SDS011;30476;53.468;9.826;2023-05-10T03:33:46;4.53;;;4.23;;
44165;SDS011;30476;53.468;9.826;2023-05-10T03:36:13;4.73;;;4.43;;
44165;SDS011;30476;53.468;9.826;2023-05-10T03:38:39;4.10;;;3.90;;
44165;SDS011;30476;53.468;9.826;2023-05-10T03:41:05;4.63;;;4.10;;
44165;SDS011;30476;53.468;9.826;2023-05-10T03:43:30;4.70;;;4.30;;
44165;SDS011;30476;53.468;9.826;2023-05-10T03:45:56;4.93;;;4.53;;
44165;SDS011;30476;53.468;9.826;2023-05-10T03:48:22;4.60;;;4.30;;
44165;SDS011;30476;53.468;9.826;2023-05-10T03:50:48;4.17;;;3.97;;
44165;SDS011;30476;53.468;9.826;2023-05-10T03:53:14;4.10;;;3.90;;
44165;SDS011;30476;53.468;9.826;2023-05-10T03:55:40;5.03;;;4.13;;
44165;SDS011;30476;53.468;9.826;2023-05-10T03:58:06;4.10;;;3.90;;
44165;SDS011;30476;53.468;9.826;2023-05-10T04:00:35;4.57;;;4.17;;
44165;SDS011;30476;53.468;9.826;2023-05-10T04:03:01;4.23;;;3.93;;
44165;SDS011;30476;53.468;9.826;2023-05-10T04:05:26;4.70;;;4.23;;
44165;SDS011;30476;53.468;9.826;2023-05-10T04:07:52;4.00;;;3.70;;
44165;SDS011;30476;53.468;9.826;2023-05-10T04:10:18;5.53;;;4.20;;
44165;SDS011;30476;53.468;9.826;2023-05-10T04:12:44;4.63;;;4.23;;
44165;SDS011;30476;53.468;9.826;2023-05-10T04:15:10;6.80;;;4.80;;
44165;SDS011;30476;53.468;9.826;2023-05-10T04:17:35;5.10;;;4.67;;
44165;SDS011;30476;53.468;9.826;2023-05-10T04:20:01;4.83;;;4.40;;
44165;SDS011;30476;53.468;9.826;2023-05-10T04:22:27;4.47;;;4.17;;
44165;SDS011;30476;53.468;9.826;2023-05-10T04:24:54;3.73;;;3.53;;
44165;SDS011;30476;53.468;9.826;2023-05-10T04:27:19;4.90;;;4.50;;
44165;SDS011;30476;53.468;9.826;2023-05-10T04:29:45;14.77;;;5.07;;
44165;SDS011;30476;53.468;9.826;2023-05-10T04:32:11;4.53;;;4.03;;
44165;SDS011;30476;53.468;9.826;2023-05-10T04:34:37;4.50;;;4.20;;
44165;SDS011;30476;53.468;9.826;2023-05-10T04:37:02;6.50;;;4.30;;
44165;SDS011;30476;53.468;9.826;2023-05-10T04:39:28;4.30;;;3.90;;
44165;SDS011;30476;53.468;9.826;2023-05-10T04:41:54;3.90;;;3.70;;
44165;SDS011;30476;53.468;9.826;2023-05-10T04:44:20;4.17;;;3.80;;
44165;SDS011;30476;53.468;9.826;2023-05-10T04:46:46;5.80;;;5.40;;
44165;SDS011;30476;53.468;9.826;2023-05-10T04:49:11;4.80;;;4.50;;
44165;SDS011;30476;53.468;9.826;2023-05-10T04:51:37;4.93;;;4.10;;
44165;SDS011;30476;53.468;9.826;2023-05-10T04:54:03;5.83;;;4.20;;
44165;SDS011;30476;53.468;9.826;2023-05-10T04:56:28;4.90;;;4.60;;
44165;SDS011;30476;53.468;9.826;2023-05-10T04:58:54;4.77;;;4.40;;
44165;SDS011;30476;53.468;9.826;2023-05-10T05:01:20;5.33;;;4.40;;
44165;SDS011;30476;53.468;9.826;2023-05-10T05:03:46;4.13;;;3.77;;
44165;SDS011;30476;53.468;9.826;2023-05-10T05:06:11;4.57;;;4.33;;
44165;SDS011;30476;53.468;9.826;2023-05-10T05:08:37;4.80;;;4.40;;
44165;SDS011;30476;53.468;9.826;2023-05-10T05:11:03;4.43;;;4.13;;
44165;SDS011;30476;53.468;9.826;2023-05-10T05:13:29;4.50;;;4.20;;
44165;SDS011;30476;53.468;9.826;2023-05-10T05:15:54;6.03;;;5.07;;
44165;SDS011;30476;53.468;9.826;2023-05-10T05:18:20;4.43;;;4.23;;
44165;SDS011;30476;53.468;9.826;2023-05-10T05:20:46;4.63;;;4.20;;
44165;SDS011;30476;53.468;9.826;2023-05-10T05:23:12;5.37;;;4.80;;
44165;SDS011;30476;53.468;9.826;2023-05-10T05:25:37;9.80;;;4.70;;
44165;SDS011;30476;53.468;9.826;2023-05-10T05:28:03;4.87;;;4.47;;
44165;SDS011;30476;53.468;9.826;2023-05-10T05:30:29;4.97;;;4.60;;
44165;SDS011;30476;53.468;9.826;2023-05-10T05:32:55;4.70;;;4.30;;
44165;SDS011;30476;53.468;9.826;2023-05-10T05:35:21;4.83;;;4.33;;
44165;SDS011;30476;53.468;9.826;2023-05-10T05:37:47;4.73;;;4.43;;
44165;SDS011;30476;53.468;9.826;2023-05-10T05:40:13;4.70;;;4.30;;
44165;SDS011;30476;53.468;9.826;2023-05-10T05:42:39;4.83;;;4.40;;
44165;SDS011;30476;53.468;9.826;2023-05-10T05:45:05;4.67;;;4.27;;
44165;SDS011;30476;53.468;9.826;2023-05-10T05:47:31;7.70;;;5.20;;
44165;SDS011;30476;53.468;9.826;2023-05-10T05:49:57;4.33;;;4.03;;
44165;SDS011;30476;53.468;9.826;2023-05-10T05:52:23;4.90;;;4.23;;
44165;SDS011;30476;53.468;9.826;2023-05-10T05:54:49;4.13;;;3.83;;
44165;SDS011;30476;53.468;9.826;2023-05-10T05:57:14;4.57;;;4.27;;
44165;SDS011;30476;53.468;9.826;2023-05-10T05:59:40;4.57;;;4.20;;
44165;SDS011;30476;53.468;9.826;2023-05-10T06:02:09;5.03;;;4.63;;
44165;SDS011;30476;53.468;9.826;2023-05-10T06:04:35;5.20;;;4.80;;
44165;SDS011;30476;53.468;9.826;2023-05-10T06:07:01;5.83;;;4.83;;
44165;SDS011;30476;53.468;9.826;2023-05-10T06:09:26;4.73;;;4.37;;
44165;SDS011;30476;53.468;9.826;2023-05-10T06:11:52;4.37;;;4.03;;
44165;SDS011;30476;53.468;9.826;2023-05-10T06:14:20;6.80;;;4.87;;
44165;SDS011;30476;53.468;9.826;2023-05-10T06:16:45;7.57;;;4.50;;
44165;SDS011;30476;53.468;9.826;2023-05-10T06:19:11;4.47;;;4.07;;
44165;SDS011;30476;53.468;9.826;2023-05-10T06:21:37;4.60;;;4.03;;
44165;SDS011;30476;53.468;9.826;2023-05-10T06:24:03;4.70;;;4.40;;
44165;SDS011;30476;53.468;9.826;2023-05-10T06:26:30;5.23;;;4.57;;
44165;SDS011;30476;53.468;9.826;2023-05-10T06:28:56;5.13;;;4.73;;
44165;SDS011;30476;53.468;9.826;2023-05-10T06:31:22;4.43;;;4.00;;
44165;SDS011;30476;53.468;9.826;2023-05-10T06:33:47;5.83;;;4.93;;
44165;SDS011;30476;53.468;9.826;2023-05-10T06:36:13;4.50;;;4.20;;
44165;SDS011;30476;53.468;9.826;2023-05-10T06:38:39;5.00;;;4.60;;
44165;SDS011;30476;53.468;9.826;2023-05-10T06:41:05;5.37;;;4.60;;
44165;SDS011;30476;53.468;9.826;2023-05-10T06:43:30;3.90;;;3.70;;
44165;SDS011;30476;53.468;9.826;2023-05-10T06:45:56;4.83;;;4.30;;
44165;SDS011;30476;53.468;9.826;2023-05-10T06:48:22;4.57;;;4.27;;
44165;SDS011;30476;53.468;9.826;2023-05-10T06:50:48;4.00;;;3.70;;
44165;SDS011;30476;53.468;9.826;2023-05-10T06:53:14;6.40;;;5.80;;
44165;SDS011;30476;53.468;9.826;2023-05-10T06:55:40;4.80;;;4.50;;
44165;SDS011;30476;53.468;9.826;2023-05-10T06:58:06;8.93;;;4.40;;
44165;SDS011;30476;53.468;9.826;2023-05-10T07:00:32;5.40;;;5.10;;
44165;SDS011;30476;53.468;9.826;2023-05-10T07:02:58;4.97;;;4.67;;
44165;SDS011;30476;53.468;9.826;2023-05-10T07:05:23;3.90;;;3.70;;
44165;SDS011;30476;53.468;9.826;2023-05-10T07:07:49;4.50;;;4.20;;
44165;SDS011;30476;53.468;9.826;2023-05-10T07:10:15;4.47;;;4.17;;
44165;SDS011;30476;53.468;9.826;2023-05-10T07:12:41;4.30;;;4.03;;
44165;SDS011;30476;53.468;9.826;2023-05-10T07:15:07;4.07;;;3.77;;
44165;SDS011;30476;53.468;9.826;2023-05-10T07:17:33;5.33;;;4.93;;
44165;SDS011;30476;53.468;9.826;2023-05-10T07:19:59;4.77;;;4.37;;
44165;SDS011;30476;53.468;9.826;2023-05-10T07:22:25;5.10;;;4.40;;
44165;SDS011;30476;53.468;9.826;2023-05-10T07:24:51;6.93;;;6.23;;
44165;SDS011;30476;53.468;9.826;2023-05-10T07:27:17;4.40;;;4.10;;
44165;SDS011;30476;53.468;9.826;2023-05-10T07:29:42;4.67;;;4.27;;
44165;SDS011;30476;53.468;9.826;2023-05-10T07:32:08;4.47;;;4.00;;
44165;SDS011;30476;53.468;9.826;2023-05-10T07:34:34;4.10;;;3.90;;
44165;SDS011;30476;53.468;9.826;2023-05-10T07:37:00;4.27;;;4.03;;
44165;SDS011;30476;53.468;9.826;2023-05-10T07:39:26;4.97;;;4.57;;
44165;SDS011;30476;53.468;9.826;2023-05-10T07:41:53;4.23;;;3.83;;
44165;SDS011;30476;53.468;9.826;2023-05-10T07:44:19;5.07;;;4.57;;
44165;SDS011;30476;53.468;9.826;2023-05-10T07:46:45;4.67;;;4.20;;
44165;SDS011;30476;53.468;9.826;2023-05-10T07:49:11;10.40;;;4.17;;
44165;SDS011;30476;53.468;9.826;2023-05-10T07:51:37;5.30;;;4.87;;
44165;SDS011;30476;53.468;9.826;2023-05-10T07:54:03;5.10;;;4.10;;
44165;SDS011;30476;53.468;9.826;2023-05-10T07:56:30;5.90;;;5.33;;
44165;SDS011;30476;53.468;9.826;2023-05-10T07:58:57;4.53;;;4.20;;
44165;SDS011;30476;53.468;9.826;2023-05-10T08:01:29;6.00;;;5.40;;
44165;SDS011;30476;53.468;9.826;2023-05-10T08:03:56;4.67;;;4.37;;
44165;SDS011;30476;53.468;9.826;2023-05-10T08:06:22;5.20;;;4.70;;
44165;SDS011;30476;53.468;9.826;2023-05-10T08:08:48;4.47;;;4.17;;
44165;SDS011;30476;53.468;9.826;2023-05-10T08:11:16;5.83;;;5.20;;
44165;SDS011;30476;53.468;9.826;2023-05-10T08:13:42;5.00;;;4.70;;
44165;SDS011;30476;53.468;9.826;2023-05-10T08:16:09;4.80;;;4.40;;
44165;SDS011;30476;53.468;9.826;2023-05-10T08:18:35;4.70;;;4.30;;
44165;SDS011;30476;53.468;9.826;2023-05-10T08:21:00;5.90;;;5.50;;
44165;SDS011;30476;53.468;9.826;2023-05-10T08:23:26;6.00;;;5.50;;
44165;SDS011;30476;53.468;9.826;2023-05-10T08:25:52;5.13;;;4.73;;
44165;SDS011;30476;53.468;9.826;2023-05-10T08:28:18;5.83;;;4.60;;
44165;SDS011;30476;53.468;9.826;2023-05-10T08:30:44;5.13;;;4.83;;
44165;SDS011;30476;53.468;9.826;2023-05-10T08:33:09;5.37;;;4.90;;
44165;SDS011;30476;53.468;9.826;2023-05-10T08:35:35;5.90;;;5.40;;
44165;SDS011;30476;53.468;9.826;2023-05-10T08:38:01;7.10;;;5.20;;
44165;SDS011;30476;53.468;9.826;2023-05-10T08:40:27;5.90;;;5.10;;
44165;SDS011;30476;53.468;9.826;2023-05-10T08:43:02;6.00;;;5.50;;
44165;SDS011;30476;53.468;9.826;2023-05-10T08:45:36;5.70;;;5.40;;
44165;SDS011;30476;53.468;9.826;2023-05-10T08:48:07;5.90;;;5.47;;
44165;SDS011;30476;53.468;9.826;2023-05-10T08:50:37;7.07;;;5.47;;
44165;SDS011;30476;53.468;9.826;2023-05-10T08:53:06;7.37;;;6.17;;
44165;SDS011;30476;53.468;9.826;2023-05-10T08:55:35;6.07;;;5.60;;
44165;SDS011;30476;53.468;9.826;2023-05-10T08:58:04;5.87;;;5.40;;
44165;SDS011;30476;53.468;9.826;2023-05-10T09:00:30;7.03;;;5.13;;
44165;SDS011;30476;53.468;9.826;2023-05-10T09:03:00;5.60;;;5.20;;
44165;SDS011;30476;53.468;9.826;2023-05-10T09:05:26;6.03;;;5.17;;
44165;SDS011;30476;53.468;9.826;2023-05-10T09:07:52;5.77;;;5.33;;
44165;SDS011;30476;53.468;9.826;2023-05-10T09:10:19;6.67;;;6.17;;
44165;SDS011;30476;53.468;9.826;2023-05-10T09:12:45;6.80;;;5.20;;
44165;SDS011;30476;53.468;9.826;2023-05-10T09:15:14;5.90;;;5.30;;
44165;SDS011;30476;53.468;9.826;2023-05-10T09:17:41;8.90;;;6.07;;
44165;SDS011;30476;53.468;9.826;2023-05-10T09:20:09;9.30;;;6.67;;
44165;SDS011;30476;53.468;9.826;2023-05-10T09:22:35;6.40;;;5.80;;
44165;SDS011;30476;53.468;9.826;2023-05-10T09:27:30;6.67;;;6.07;;
44165;SDS011;30476;53.468;9.826;2023-05-10T09:29:55;8.20;;;7.50;;
44165;SDS011;30476;53.468;9.826;2023-05-10T09:32:21;7.47;;;6.40;;
44165;SDS011;30476;53.468;9.826;2023-05-10T09:34:47;7.00;;;6.50;;
44165;SDS011;30476;53.468;9.826;2023-05-10T09:37:15;7.50;;;6.40;;
44165;SDS011;30476;53.468;9.826;2023-05-10T09:39:40;8.47;;;7.67;;
44165;SDS011;30476;53.468;9.826;2023-05-10T09:42:09;7.77;;;7.13;;
44165;SDS011;30476;53.468;9.826;2023-05-10T09:44:35;7.40;;;6.80;;
44165;SDS011;30476;53.468;9.826;2023-05-10T09:47:02;7.60;;;7.00;;
44165;SDS011;30476;53.468;9.826;2023-05-10T09:49:28;7.40;;;6.80;;
44165;SDS011;30476;53.468;9.826;2023-05-10T09:52:12;8.50;;;7.80;;
44165;SDS011;30476;53.468;9.826;2023-05-10T09:54:38;7.13;;;6.53;;
44165;SDS011;30476;53.468;9.826;2023-05-10T09:57:20;8.40;;;7.70;;
44165;SDS011;30476;53.468;9.826;2023-05-10T09:59:47;8.20;;;7.40;;
44165;SDS011;30476;53.468;9.826;2023-05-10T10:02:13;9.23;;;7.80;;
44165;SDS011;30476;53.468;9.826;2023-05-10T10:04:40;8.57;;;7.87;;
44165;SDS011;30476;53.468;9.826;2023-05-10T10:07:06;8.63;;;8.03;;
44165;SDS011;30476;53.468;9.826;2023-05-10T10:09:32;8.00;;;7.30;;
44165;SDS011;30476;53.468;9.826;2023-05-10T10:11:59;8.20;;;7.60;;
44165;SDS011;30476;53.468;9.826;2023-05-10T10:14:26;10.37;;;9.57;;
44165;SDS011;30476;53.468;9.826;2023-05-10T10:16:52;9.03;;;8.33;;
44165;SDS011;30476;53.468;9.826;2023-05-10T10:19:18;9.03;;;8.30;;
44165;SDS011;30476;53.468;9.826;2023-05-10T10:21:45;9.63;;;8.67;;
44165;SDS011;30476;53.468;9.826;2023-05-10T10:24:11;8.53;;;7.73;;
44165;SDS011;30476;53.468;9.826;2023-05-10T10:26:37;8.70;;;8.03;;
44165;SDS011;30476;53.468;9.826;2023-05-10T10:29:21;11.67;;;8.67;;
44165;SDS011;30476;53.468;9.826;2023-05-10T10:31:57;9.73;;;8.97;;
44165;SDS011;30476;53.468;9.826;2023-05-10T10:34:49;8.70;;;8.00;;
44165;SDS011;30476;53.468;9.826;2023-05-10T10:37:15;11.07;;;10.03;;
44165;SDS011;30476;53.468;9.826;2023-05-10T10:39:41;8.20;;;7.40;;
44165;SDS011;30476;53.468;9.826;2023-05-10T10:42:07;7.93;;;7.33;;
44165;SDS011;30476;53.468;9.826;2023-05-10T10:47:07;9.10;;;8.40;;
44165;SDS011;30476;53.468;9.826;2023-05-10T10:54:52;8.60;;;7.80;;
44165;SDS011;30476;53.468;9.826;2023-05-10T10:57:22;8.47;;;7.40;;
44165;SDS011;30476;53.468;9.826;2023-05-10T10:59:48;9.30;;;7.67;;
44165;SDS011;30476;53.468;9.826;2023-05-10T11:02:33;8.90;;;8.20;;
44165;SDS011;30476;53.468;9.826;2023-05-10T11:07:58;10.40;;;7.90;;
44165;SDS011;30476;53.468;9.826;2023-05-10T11:10:25;8.53;;;7.67;;
44165;SDS011;30476;53.468;9.826;2023-05-10T11:12:52;8.90;;;8.20;;
44165;SDS011;30476;53.468;9.826;2023-05-10T11:15:29;9.70;;;8.80;;
44165;SDS011;30476;53.468;9.826;2023-05-10T11:18:36;8.73;;;7.90;;
44165;SDS011;30476;53.468;9.826;2023-05-10T11:20:59;8.90;;;8.03;;
44165;SDS011;30476;53.468;9.826;2023-05-10T11:23:31;7.30;;;6.77;;
44165;SDS011;30476;53.468;9.826;2023-05-10T11:26:12;10.00;;;8.57;;
44165;SDS011;30476;53.468;9.826;2023-05-10T11:28:45;9.53;;;8.73;;
44165;SDS011;30476;53.468;9.826;2023-05-10T11:31:13;8.17;;;7.40;;
44165;SDS011;30476;53.468;9.826;2023-05-10T11:33:47;9.37;;;8.57;;
44165;SDS011;30476;53.468;9.826;2023-05-10T11:36:16;14.07;;;8.60;;
44165;SDS011;30476;53.468;9.826;2023-05-10T11:38:55;7.53;;;6.77;;
44165;SDS011;30476;53.468;9.826;2023-05-10T11:41:21;6.40;;;5.90;;
44165;SDS011;30476;53.468;9.826;2023-05-10T11:43:51;7.77;;;6.90;;
44165;SDS011;30476;53.468;9.826;2023-05-10T11:46:22;7.20;;;6.70;;
44165;SDS011;30476;53.468;9.826;2023-05-10T11:48:50;7.30;;;6.70;;
44165;SDS011;30476;53.468;9.826;2023-05-10T11:51:23;7.63;;;6.70;;
44165;SDS011;30476;53.468;9.826;2023-05-10T11:53:53;6.53;;;6.03;;
44165;SDS011;30476;53.468;9.826;2023-05-10T11:56:20;6.17;;;5.67;;
44165;SDS011;30476;53.468;9.826;2023-05-10T11:58:52;6.90;;;6.30;;
44165;SDS011;30476;53.468;9.826;2023-05-10T12:01:21;7.30;;;6.23;;
44165;SDS011;30476;53.468;9.826;2023-05-10T12:03:51;7.17;;;6.57;;
44165;SDS011;30476;53.468;9.826;2023-05-10T12:06:19;5.67;;;5.37;;
44165;SDS011;30476;53.468;9.826;2023-05-10T12:08:46;6.03;;;5.60;;
44165;SDS011;30476;53.468;9.826;2023-05-10T12:11:13;6.33;;;5.83;;
44165;SDS011;30476;53.468;9.826;2023-05-10T12:13:41;6.20;;;5.80;;
44165;SDS011;30476;53.468;9.826;2023-05-10T12:16:15;6.20;;;5.80;;
44165;SDS011;30476;53.468;9.826;2023-05-10T12:18:45;6.00;;;5.50;;
44165;SDS011;30476;53.468;9.826;2023-05-10T12:21:14;5.80;;;5.33;;
44165;SDS011;30476;53.468;9.826;2023-05-10T12:23:40;7.33;;;6.70;;
44165;SDS011;30476;53.468;9.826;2023-05-10T12:26:08;6.60;;;6.10;;
44165;SDS011;30476;53.468;9.826;2023-05-10T12:28:35;6.80;;;6.40;;
44165;SDS011;30476;53.468;9.826;2023-05-10T12:31:02;5.90;;;5.50;;
44165;SDS011;30476;53.468;9.826;2023-05-10T12:33:34;6.07;;;5.67;;
44165;SDS011;30476;53.468;9.826;2023-05-10T12:36:08;5.67;;;5.17;;
44165;SDS011;30476;53.468;9.826;2023-05-10T12:38:38;5.67;;;5.33;;
44165;SDS011;30476;53.468;9.826;2023-05-10T12:41:08;5.10;;;4.80;;
44165;SDS011;30476;53.468;9.826;2023-05-10T12:43:35;7.10;;;6.57;;
44165;SDS011;30476;53.468;9.826;2023-05-10T12:46:08;6.57;;;6.13;;
44165;SDS011;30476;53.468;9.826;2023-05-10T12:48:35;7.40;;;6.80;;
44165;SDS011;30476;53.468;9.826;2023-05-10T12:51:02;7.13;;;6.53;;
44165;SDS011;30476;53.468;9.826;2023-05-10T12:53:29;6.30;;;5.70;;
44165;SDS011;30476;53.468;9.826;2023-05-10T12:55:55;7.13;;;6.53;;
44165;SDS011;30476;53.468;9.826;2023-05-10T12:58:21;7.37;;;6.87;;
44165;SDS011;30476;53.468;9.826;2023-05-10T13:00:47;7.27;;;6.67;;
44165;SDS011;30476;53.468;9.826;2023-05-10T13:03:12;7.23;;;6.73;;
44165;SDS011;30476;53.468;9.826;2023-05-10T13:05:38;5.87;;;5.37;;
44165;SDS011;30476;53.468;9.826;2023-05-10T13:08:04;6.70;;;6.20;;
44165;SDS011;30476;53.468;9.826;2023-05-10T13:10:30;6.70;;;6.10;;
44165;SDS011;30476;53.468;9.826;2023-05-10T13:12:57;7.13;;;6.57;;
44165;SDS011;30476;53.468;9.826;2023-05-10T13:15:24;7.27;;;6.70;;
44165;SDS011;30476;53.468;9.826;2023-05-10T13:17:50;7.20;;;6.57;;
44165;SDS011;30476;53.468;9.826;2023-05-10T13:20:16;7.80;;;7.20;;
44165;SDS011;30476;53.468;9.826;2023-05-10T13:22:42;7.07;;;6.53;;
44165;SDS011;30476;53.468;9.826;2023-05-10T13:25:08;6.60;;;6.17;;
44165;SDS011;30476;53.468;9.826;2023-05-10T13:27:34;7.50;;;7.00;;
44165;SDS011;30476;53.468;9.826;2023-05-10T13:30:01;7.50;;;6.90;;
44165;SDS011;30476;53.468;9.826;2023-05-10T13:32:28;7.40;;;6.90;;
44165;SDS011;30476;53.468;9.826;2023-05-10T13:34:54;7.53;;;6.93;;
44165;SDS011;30476;53.468;9.826;2023-05-10T13:37:20;7.13;;;6.60;;
44165;SDS011;30476;53.468;9.826;2023-05-10T13:39:47;7.53;;;6.83;;
44165;SDS011;30476;53.468;9.826;2023-05-10T13:42:13;7.77;;;7.17;;
44165;SDS011;30476;53.468;9.826;2023-05-10T13:44:39;7.40;;;7.00;;
44165;SDS011;30476;53.468;9.826;2023-05-10T13:47:05;7.47;;;6.83;;
44165;SDS011;30476;53.468;9.826;2023-05-10T13:49:31;7.73;;;7.07;;
44165;SDS011;30476;53.468;9.826;2023-05-10T13:51:57;7.20;;;6.70;;
44165;SDS011;30476;53.468;9.826;2023-05-10T13:54:23;8.17;;;7.40;;
44165;SDS011;30476;53.468;9.826;2023-05-10T13:56:49;6.77;;;6.40;;
44165;SDS011;30476;53.468;9.826;2023-05-10T13:59:15;6.83;;;6.43;;
44165;SDS011;30476;53.468;9.826;2023-05-10T14:01:41;6.77;;;6.33;;
44165;SDS011;30476;53.468;9.826;2023-05-10T14:04:08;6.70;;;6.23;;
44165;SDS011;30476;53.468;9.826;2023-05-10T14:06:36;6.30;;;5.87;;
44165;SDS011;30476;53.468;9.826;2023-05-10T14:09:02;6.00;;;5.60;;
44165;SDS011;30476;53.468;9.826;2023-05-10T14:11:28;7.20;;;6.63;;
44165;SDS011;30476;53.468;9.826;2023-05-10T14:13:54;6.77;;;6.27;;
44165;SDS011;30476;53.468;9.826;2023-05-10T14:16:20;6.30;;;5.90;;
44165;SDS011;30476;53.468;9.826;2023-05-10T14:18:46;5.67;;;5.37;;
44165;SDS011;30476;53.468;9.826;2023-05-10T14:21:12;6.57;;;6.10;;
44165;SDS011;30476;53.468;9.826;2023-05-10T14:23:38;5.60;;;5.30;;
44165;SDS011;30476;53.468;9.826;2023-05-10T14:26:04;6.10;;;5.70;;
44165;SDS011;30476;53.468;9.826;2023-05-10T14:28:30;6.33;;;5.87;;
44165;SDS011;30476;53.468;9.826;2023-05-10T14:30:56;6.00;;;5.50;;
44165;SDS011;30476;53.468;9.826;2023-05-10T14:33:22;5.70;;;5.20;;
44165;SDS011;30476;53.468;9.826;2023-05-10T14:35:47;4.80;;;4.50;;
44165;SDS011;30476;53.468;9.826;2023-05-10T14:38:14;5.50;;;5.07;;
44165;SDS011;30476;53.468;9.826;2023-05-10T14:40:39;5.27;;;4.90;;
44165;SDS011;30476;53.468;9.826;2023-05-10T14:43:05;4.50;;;4.20;;
44165;SDS011;30476;53.468;9.826;2023-05-10T14:45:31;5.17;;;4.67;;
44165;SDS011;30476;53.468;9.826;2023-05-10T14:47:57;4.20;;;4.00;;
44165;SDS011;30476;53.468;9.826;2023-05-10T14:50:24;6.23;;;5.40;;
44165;SDS011;30476;53.468;9.826;2023-05-10T14:52:49;4.83;;;4.53;;
44165;SDS011;30476;53.468;9.826;2023-05-10T14:55:15;4.10;;;3.80;;
44165;SDS011;30476;53.468;9.826;2023-05-10T14:57:41;4.43;;;4.23;;
44165;SDS011;30476;53.468;9.826;2023-05-10T15:00:07;4.23;;;3.93;;
44165;SDS011;30476;53.468;9.826;2023-05-10T15:02:33;4.23;;;3.90;;
44165;SDS011;30476;53.468;9.826;2023-05-10T15:04:59;3.47;;;3.27;;
44165;SDS011;30476;53.468;9.826;2023-05-10T15:07:25;3.73;;;3.53;;
44165;SDS011;30476;53.468;9.826;2023-05-10T15:09:51;3.80;;;3.60;;
44165;SDS011;30476;53.468;9.826;2023-05-10T15:12:17;3.83;;;3.63;;